Time;durP1;ratioP1;P1;durP2;ratioP2;P2;SDS_P1;SDS_P2;PMS_P1;PMS_P2;Temp;Humidity;BMP_temperature;BMP_pressure;BME280_temperature;BME280_humidity;BME280_pressure;Samples;Min_cycle;Max_cycle;Signal;HPM_P1;HPM_P2
2023/05/14 00:01:47;;;;;;;;;4.00;4.00;;;;;14.65;76.16;100772.19;5069062;28;45422;-70
2023/05/14 00:04:13;;;;;;;;;5.00;4.00;;;;;14.58;76.00;100767.66;5076131;28;45410;-71
2023/05/14 00:06:38;;;;;;;;;4.33;4.00;;;;;14.57;75.75;100761.53;5077674;28;45375;-71
2023/05/14 00:09:04;;;;;;;;;3.00;3.00;;;;;14.70;75.72;100787.19;5076991;28;46504;-71
2023/05/14 00:11:30;;;;;;;;;3.00;3.00;;;;;14.58;75.91;100763.28;5068937;28;45853;-71
2023/05/14 00:13:55;;;;;;;;;4.00;4.00;;;;;14.71;75.90;100778.41;5077074;27;45451;-70
2023/05/14 00:16:21;;;;;;;;;2.33;2.33;;;;;14.64;75.52;100760.78;5075885;28;45619;-70
2023/05/14 00:18:46;;;;;;;;;2.00;2.00;;;;;14.65;76.08;100773.06;5076836;28;45590;-70
2023/05/14 00:21:12;;;;;;;;;3.33;3.00;;;;;14.63;76.08;100760.75;5077410;28;45675;-72
2023/05/14 00:23:37;;;;;;;;;2.67;2.67;;;;;14.50;75.72;100742.13;5077692;28;45457;-70
2023/05/14 00:26:03;;;;;;;;;4.00;3.00;;;;;14.72;75.76;100774.03;5077587;27;45298;-71
2023/05/14 00:28:29;;;;;;;;;3.00;3.00;;;;;14.67;75.90;100768.72;5076653;27;46294;-71
2023/05/14 00:30:55;;;;;;;;;4.33;4.00;;;;;14.71;76.04;100777.53;5072521;27;45634;-72
2023/05/14 00:33:21;;;;;;;;;3.00;3.00;;;;;14.65;75.82;100764.28;5072641;28;45354;-70
2023/05/14 00:35:47;;;;;;;;;4.00;3.00;;;;;14.74;75.75;100772.31;5076920;28;45429;-70
2023/05/14 00:38:16;;;;;;;;;4.00;3.00;;;;;14.70;75.83;100759.97;5077378;27;46283;-70
2023/05/14 00:40:44;;;;;;;;;4.00;4.00;;;;;14.70;75.30;100755.63;5077333;28;45406;-69
2023/05/14 00:43:10;;;;;;;;;3.67;3.67;;;;;14.58;75.26;100734.34;5076473;28;45429;-71
2023/05/14 00:45:37;;;;;;;;;3.00;3.00;;;;;14.67;75.67;100752.06;5077583;28;45581;-69
2023/05/14 00:48:03;;;;;;;;;5.00;4.00;;;;;14.52;76.91;100723.72;5076511;28;45466;-71
2023/05/14 00:50:29;;;;;;;;;3.33;3.00;;;;;14.58;76.53;100750.13;5076661;28;45363;-71
2023/05/14 00:52:54;;;;;;;;;3.00;3.00;;;;;14.57;76.07;100739.63;5076570;28;45314;-69
2023/05/14 00:55:21;;;;;;;;;4.00;3.33;;;;;14.53;76.27;100726.38;5076450;27;45649;-69
2023/05/14 00:57:48;;;;;;;;;3.33;3.33;;;;;14.59;75.49;100730.00;5076659;28;46273;-70
2023/05/14 01:00:14;;;;;;;;;2.33;2.33;;;;;14.57;75.76;100729.97;5076484;28;45318;-70
2023/05/14 01:02:39;;;;;;;;;4.00;4.00;;;;;14.53;76.28;100736.88;5076978;28;45432;-70
2023/05/14 01:05:06;;;;;;;;;3.00;2.67;;;;;14.55;76.49;100734.28;5076762;28;45544;-70
2023/05/14 01:07:48;;;;;;;;;5.33;4.00;;;;;14.60;75.67;100730.00;5076258;28;46450;-71
2023/05/14 01:10:42;;;;;;;;;3.67;3.00;;;;;14.51;76.58;100727.22;5075694;28;45407;-70
2023/05/14 01:13:20;;;;;;;;;4.67;4.00;;;;;14.50;76.69;100728.06;5071983;28;45631;-71
2023/05/14 01:15:47;;;;;;;;;5.00;4.00;;;;;14.51;76.22;100717.56;5071462;28;45712;-70
2023/05/14 01:18:17;;;;;;;;;5.00;4.00;;;;;14.41;76.26;100706.91;5077044;28;45528;-70
2023/05/14 01:20:44;;;;;;;;;5.00;5.00;;;;;14.55;76.93;100733.41;5076316;28;45525;-70
2023/05/14 01:23:10;;;;;;;;;5.33;5.00;;;;;14.42;76.93;100717.41;5075300;28;45463;-70
2023/05/14 01:25:36;;;;;;;;;5.33;5.00;;;;;14.53;77.20;100721.13;5075950;28;45516;-70
2023/05/14 01:28:19;;;;;;;;;5.00;5.00;;;;;14.43;77.09;100716.56;5076396;28;46462;-70
2023/05/14 01:31:00;;;;;;;;;4.67;4.67;;;;;14.55;77.13;100718.53;5074492;28;45544;-70
2023/05/14 01:33:28;;;;;;;;;5.00;4.00;;;;;14.50;77.20;100725.44;5074424;28;45598;-70
2023/05/14 01:35:54;;;;;;;;;8.00;6.33;;;;;14.37;77.38;100711.22;5072215;28;45609;-71
2023/05/14 01:38:22;;;;;;;;;7.00;6.33;;;;;14.47;78.11;100718.38;5075261;28;45496;-70
2023/05/14 01:40:48;;;;;;;;;7.33;7.33;;;;;14.52;77.89;100724.63;5075939;27;45424;-71
2023/05/14 01:43:15;;;;;;;;;6.00;6.00;;;;;14.38;77.06;100697.19;5075629;27;45395;-72
2023/05/14 01:45:41;;;;;;;;;4.67;4.67;;;;;14.35;77.44;100696.28;5075473;28;45575;-72
2023/05/14 01:48:06;;;;;;;;;6.67;6.67;;;;;14.31;77.65;100704.09;5070779;28;46320;-70
2023/05/14 01:50:32;;;;;;;;;7.00;6.33;;;;;14.43;77.69;100719.19;5075666;28;45482;-72
2023/05/14 01:52:58;;;;;;;;;7.00;6.00;;;;;14.40;78.12;100715.63;5075289;28;45478;-70
2023/05/14 01:55:24;;;;;;;;;9.50;7.25;;;;;14.46;77.58;100713.09;5073863;28;45464;-70
2023/05/14 01:57:50;;;;;;;;;6.00;5.67;;;;;14.47;77.35;100710.50;5075029;28;46322;-70
2023/05/14 02:00:16;;;;;;;;;8.33;6.33;;;;;14.48;78.22;100720.19;5075296;28;45615;-71
2023/05/14 02:02:41;;;;;;;;;8.67;7.33;;;;;13.93;77.20;100606.25;5073666;28;45530;-69
2023/05/14 02:05:08;;;;;;;;;7.67;6.67;;;;;14.53;76.81;100689.56;5075987;28;46145;-72
2023/05/14 02:07:33;;;;;;;;;9.00;8.00;;;;;14.49;77.33;100674.59;5074949;28;45635;-70
2023/05/14 02:09:59;;;;;;;;;7.00;6.75;;;;;14.44;77.75;100678.94;5074610;28;45476;-72
2023/05/14 02:12:25;;;;;;;;;10.33;7.33;;;;;14.27;77.06;100633.09;5074864;28;45752;-72
2023/05/14 02:14:50;;;;;;;;;7.33;7.00;;;;;14.24;77.37;100623.38;5075412;28;45465;-70
2023/05/14 02:17:16;;;;;;;;;7.00;6.00;;;;;14.34;77.73;100650.69;5074996;27;45378;-70
2023/05/14 02:19:43;;;;;;;;;7.00;6.33;;;;;14.17;77.92;100631.16;5074669;28;45457;-71
2023/05/14 02:22:08;;;;;;;;;9.00;7.00;;;;;14.20;78.36;100674.13;5070212;28;45496;-70
2023/05/14 02:24:34;;;;;;;;;11.50;10.00;;;;;14.13;78.86;100673.13;5075362;28;45686;-70
2023/05/14 02:26:59;;;;;;;;;13.00;9.25;;;;;14.12;79.21;100660.88;5074643;28;45654;-72
2023/05/14 02:29:26;;;;;;;;;10.00;10.00;;;;;14.04;80.54;100666.84;5074594;28;45329;-70
2023/05/14 02:31:51;;;;;;;;;10.00;9.75;;;;;13.89;78.92;100635.94;5074849;28;45589;-71
2023/05/14 02:34:17;;;;;;;;;9.00;8.75;;;;;14.15;78.94;100672.28;5025806;28;1292766;-71
2023/05/14 02:36:43;;;;;;;;;9.25;9.25;;;;;14.04;79.23;100646.69;5076533;28;45413;-71
2023/05/14 02:39:08;;;;;;;;;11.50;9.25;;;;;14.13;78.45;100651.25;5071772;27;45436;-71
2023/05/14 02:41:34;;;;;;;;;7.75;7.00;;;;;13.75;78.43;100574.41;5076659;28;45315;-72
2023/05/14 02:43:59;;;;;;;;;11.75;10.25;;;;;14.13;79.36;100636.34;5075282;28;45921;-70
2023/05/14 02:46:25;;;;;;;;;9.00;8.75;;;;;14.24;78.61;100644.41;5075728;28;45655;-72
2023/05/14 02:48:50;;;;;;;;;13.50;11.00;;;;;14.23;78.06;100642.66;5075552;28;45426;-71
2023/05/14 02:51:19;;;;;;;;;11.00;10.00;;;;;14.33;78.62;100646.31;5074942;27;45539;-70
2023/05/14 02:53:45;;;;;;;;;9.67;8.67;;;;;14.25;78.97;100638.31;5076636;28;45514;-70
2023/05/14 02:56:10;;;;;;;;;10.75;9.75;;;;;14.22;79.67;100648.75;5075483;27;46050;-70
2023/05/14 02:58:36;;;;;;;;;12.75;11.25;;;;;14.06;80.68;100644.09;5073208;28;45445;-71
2023/05/14 03:01:01;;;;;;;;;12.50;11.00;;;;;14.09;80.01;100646.81;5075015;27;45606;-71
2023/05/14 03:03:29;;;;;;;;;12.00;10.50;;;;;14.18;79.61;100640.81;5075791;28;45492;-69
2023/05/14 03:05:54;;;;;;;;;12.00;10.00;;;;;14.23;79.76;100639.16;5074095;28;45563;-70
2023/05/14 03:08:20;;;;;;;;;9.75;9.25;;;;;14.24;79.86;100638.28;5076865;27;45858;-71
2023/05/14 03:10:45;;;;;;;;;9.00;8.00;;;;;14.00;79.68;100592.34;5076800;28;45409;-72
2023/05/14 03:13:11;;;;;;;;;11.50;10.50;;;;;13.78;79.25;100540.34;5076012;28;45247;-70
2023/05/14 03:15:36;;;;;;;;;11.00;10.67;;;;;14.26;78.95;100618.16;5074399;28;47053;-71
2023/05/14 03:18:02;;;;;;;;;8.67;8.00;;;;;14.30;78.62;100617.34;5076555;28;45541;-70
2023/05/14 03:20:28;;;;;;;;;8.67;8.33;;;;;14.23;79.07;100603.25;5076636;28;45436;-71
2023/05/14 03:22:54;;;;;;;;;11.67;10.33;;;;;14.22;78.94;100603.22;5076787;28;45542;-72
2023/05/14 03:25:20;;;;;;;;;12.00;10.67;;;;;14.30;79.12;100609.47;5075337;28;46315;-72
2023/05/14 03:27:46;;;;;;;;;9.00;9.00;;;;;14.04;79.83;100552.13;5076500;28;45305;-73
2023/05/14 03:30:12;;;;;;;;;10.50;10.25;;;;;14.37;79.10;100618.34;5075723;28;45470;-72
2023/05/14 03:32:37;;;;;;;;;10.67;9.33;;;;;14.31;79.45;100592.84;5078207;28;45233;-72
2023/05/14 03:35:03;;;;;;;;;9.00;9.00;;;;;14.35;78.96;100591.16;5079371;28;46475;-72
2023/05/14 03:37:29;;;;;;;;;8.33;7.00;;;;;14.45;78.92;100606.22;5079528;28;45483;-73
2023/05/14 03:39:54;;;;;;;;;9.67;8.00;;;;;14.40;79.07;100598.22;5078327;28;45512;-71
2023/05/14 03:42:20;;;;;;;;;10.33;9.33;;;;;14.44;79.15;100620.19;5080485;28;45475;-72
2023/05/14 03:44:45;;;;;;;;;9.33;8.00;;;;;14.48;78.54;100622.91;5078070;28;45672;-72
2023/05/14 03:47:11;;;;;;;;;12.75;12.00;;;;;14.36;79.61;100617.44;5079763;28;45551;-72
2023/05/14 03:49:36;;;;;;;;;10.75;10.25;;;;;14.38;79.15;100631.50;5079794;28;45381;-71
2023/05/14 03:52:02;;;;;;;;;10.00;10.00;;;;;14.29;79.99;100608.59;5078542;28;45584;-72
2023/05/14 03:54:27;;;;;;;;;12.25;11.50;;;;;14.30;80.67;100619.97;5079023;27;46072;-72
2023/05/14 03:56:53;;;;;;;;;10.67;9.00;;;;;14.30;80.57;100609.47;5077314;28;45499;-70
2023/05/14 03:59:18;;;;;;;;;11.25;10.25;;;;;14.34;81.04;100616.53;5079369;28;45394;-71
2023/05/14 04:01:44;;;;;;;;;11.75;10.50;;;;;14.32;81.34;100606.03;5079428;28;45377;-71
2023/05/14 04:04:09;;;;;;;;;10.00;9.00;;;;;14.43;81.16;100613.19;5079328;27;45566;-73
2023/05/14 04:06:35;;;;;;;;;11.00;10.00;;;;;14.36;80.85;100595.53;5079360;28;45258;-72
2023/05/14 04:09:02;;;;;;;;;7.00;6.33;;;;;14.48;80.85;100617.66;5078200;28;45299;-71
2023/05/14 04:11:28;;;;;;;;;11.67;10.67;;;;;14.46;80.36;100595.72;5079564;27;45571;-72
2023/05/14 04:13:53;;;;;;;;;12.00;10.00;;;;;14.47;79.85;100593.97;5077781;28;45578;-70
2023/05/14 04:16:19;;;;;;;;;11.00;8.67;;;;;14.57;80.80;100611.69;5079329;28;45468;-73
2023/05/14 04:18:47;;;;;;;;;8.00;8.00;;;;;14.55;81.55;100612.50;5079529;28;45497;-71
2023/05/14 04:21:13;;;;;;;;;9.00;9.00;;;;;14.53;81.08;100605.44;5079513;28;45339;-71
2023/05/14 04:23:38;;;;;;;;;6.33;6.33;;;;;14.47;79.80;100594.84;5078764;28;45476;-70
2023/05/14 04:26:04;;;;;;;;;10.67;6.67;;;;;14.55;80.11;100612.50;5077671;28;45413;-72
2023/05/14 04:28:30;;;;;;;;;5.00;4.33;;;;;14.51;79.19;100594.03;5078881;28;45493;-71
2023/05/14 04:30:55;;;;;;;;;5.67;5.00;;;;;14.51;78.66;100607.19;5079062;27;45528;-72
2023/05/14 04:33:21;;;;;;;;;5.33;5.00;;;;;14.48;78.63;100591.38;5079010;28;46241;-70
2023/05/14 04:35:46;;;;;;;;;4.67;4.00;;;;;14.55;78.79;100616.00;5078861;28;45492;-71
2023/05/14 04:38:13;;;;;;;;;5.67;5.67;;;;;14.63;79.12;100618.78;5078903;28;45480;-71
2023/05/14 04:40:40;;;;;;;;;4.00;4.00;;;;;14.68;78.37;100630.22;5077527;28;45598;-72
2023/05/14 04:43:06;;;;;;;;;2.67;2.00;;;;;14.50;77.39;100621.19;5078455;27;46028;-70
2023/05/14 04:45:32;;;;;;;;;2.00;2.00;;;;;14.56;77.47;100635.28;5078022;28;45457;-72
2023/05/14 04:47:58;;;;;;;;;2.00;2.00;;;;;14.36;77.61;100616.56;5111444;27;45435;-71
2023/05/14 04:50:24;;;;;;;;;3.00;3.00;;;;;14.32;77.11;100610.38;5079171;28;45473;-71
2023/05/14 04:52:49;;;;;;;;;1.00;1.00;;;;;14.26;78.61;100618.16;5078410;27;45322;-70
2023/05/14 04:55:15;;;;;;;;;3.00;3.00;;;;;14.31;78.51;100627.88;5077292;28;45401;-70
2023/05/14 04:57:41;;;;;;;;;2.00;2.00;;;;;14.30;78.16;100625.22;5072140;28;45350;-71
2023/05/14 05:00:08;;;;;;;;;2.33;2.00;;;;;14.16;78.31;100608.38;5057669;28;45383;-70
2023/05/14 05:02:34;;;;;;;;;2.00;2.00;;;;;14.33;78.48;100630.56;5076569;28;46872;-71
2023/05/14 05:05:00;;;;;;;;;2.00;2.00;;;;;14.33;78.24;100631.44;5069717;28;45439;-70
2023/05/14 05:07:25;;;;;;;;;3.00;2.00;;;;;14.44;78.34;100644.75;5058502;28;45232;-71
2023/05/14 05:09:51;;;;;;;;;1.00;1.00;;;;;14.36;78.47;100627.09;5058144;28;45452;-72
2023/05/14 05:12:16;;;;;;;;;1.33;1.33;;;;;14.32;78.29;100610.38;5058020;28;45325;-71
2023/05/14 05:14:42;;;;;;;;;2.00;2.00;;;;;14.35;77.60;100634.09;5058147;28;45504;-72
2023/05/14 05:17:07;;;;;;;;;2.00;2.00;;;;;14.43;77.52;100637.72;5058367;28;45367;-70
2023/05/14 05:19:33;;;;;;;;;1.00;1.00;;;;;14.39;77.06;100624.50;5058280;28;45394;-70
2023/05/14 05:21:58;;;;;;;;;2.00;2.00;;;;;14.42;76.94;100621.91;5057820;28;46530;-72
2023/05/14 05:24:24;;;;;;;;;1.67;1.67;;;;;14.48;77.02;100632.53;5062382;28;45539;-70
2023/05/14 05:26:50;;;;;;;;;3.00;2.00;;;;;14.57;76.60;100637.97;5078142;28;45484;-70
2023/05/14 05:29:16;;;;;;;;;1.00;1.00;;;;;14.66;76.33;100647.72;5077134;28;45531;-69
2023/05/14 05:31:42;;;;;;;;;1.00;1.00;;;;;14.59;76.91;100643.25;5075462;28;45633;-70
2023/05/14 05:34:07;;;;;;;;;3.33;2.33;;;;;14.68;76.78;100651.25;5076975;27;45574;-71
2023/05/14 05:36:33;;;;;;;;;2.00;2.00;;;;;14.60;77.27;100648.50;5077202;27;45627;-71
2023/05/14 05:38:58;;;;;;;;;1.00;1.00;;;;;14.67;76.67;100655.63;5076347;28;45544;-69
2023/05/14 05:41:25;;;;;;;;;2.00;2.00;;;;;14.78;76.98;100662.81;5077015;27;45439;-70
2023/05/14 05:43:50;;;;;;;;;2.33;2.00;;;;;14.66;76.75;100640.75;5077022;27;45504;-69
2023/05/14 05:46:16;;;;;;;;;3.00;3.00;;;;;14.82;76.83;100660.25;5075674;28;45558;-70
2023/05/14 05:48:41;;;;;;;;;3.00;2.00;;;;;14.75;76.57;100647.00;5077384;27;45472;-70
2023/05/14 05:51:07;;;;;;;;;3.00;3.00;;;;;14.81;76.96;100669.00;5076547;27;46151;-69
2023/05/14 05:53:33;;;;;;;;;4.00;4.00;;;;;14.82;77.42;100669.88;5076896;27;45370;-70
2023/05/14 05:55:58;;;;;;;;;3.33;3.33;;;;;14.76;78.19;100660.13;5074260;28;45455;-70
2023/05/14 05:58:24;;;;;;;;;5.67;5.67;;;;;14.93;77.87;100693.72;5076908;27;45400;-70
2023/05/14 06:00:49;;;;;;;;;10.00;8.00;;;;;14.85;78.08;100681.31;5076199;28;45500;-71
2023/05/14 06:03:15;;;;;;;;;9.25;8.50;;;;;14.83;78.45;100671.66;5076524;28;45445;-70
2023/05/14 06:05:40;;;;;;;;;7.50;7.50;;;;;14.96;78.17;100697.28;5074169;28;45541;-70
2023/05/14 06:08:06;;;;;;;;;7.00;6.00;;;;;15.02;78.23;100700.00;5075121;28;45649;-70
2023/05/14 06:10:33;;;;;;;;;8.00;7.00;;;;;15.06;77.51;100690.38;5076208;27;46193;-70
2023/05/14 06:12:58;;;;;;;;;5.00;5.00;;;;;15.23;78.32;100715.19;5076973;27;45436;-70
2023/05/14 06:15:24;;;;;;;;;5.00;5.00;;;;;15.23;77.49;100707.28;5076739;27;45488;-71
2023/05/14 06:17:49;;;;;;;;;7.33;7.33;;;;;15.34;77.52;100723.25;5075467;28;45411;-72
2023/05/14 06:20:15;;;;;;;;;7.75;6.75;;;;;15.32;77.67;100707.41;5076241;27;46051;-72
2023/05/14 06:22:40;;;;;;;;;7.00;7.00;;;;;15.39;77.29;100711.00;5076063;27;45555;-70
2023/05/14 06:25:07;;;;;;;;;9.00;8.67;;;;;15.41;77.38;100697.88;5076599;28;45417;-69
2023/05/14 06:27:32;;;;;;;;;6.00;6.00;;;;;15.49;76.74;100698.84;5076008;27;45362;-70
2023/05/14 06:29:58;;;;;;;;;5.67;5.67;;;;;15.59;76.37;100698.09;5074993;28;46384;-70
2023/05/14 06:32:23;;;;;;;;;6.67;5.00;;;;;15.68;76.80;100711.38;5076053;28;45330;-70
2023/05/14 06:34:49;;;;;;;;;6.00;6.00;;;;;15.66;76.65;100699.06;5074878;28;45435;-69
2023/05/14 06:37:14;;;;;;;;;8.33;4.67;;;;;15.70;76.19;100703.50;5076393;27;45374;-70
2023/05/14 06:39:46;;;;;;;;;5.00;4.00;;;;;15.81;76.21;100708.91;5076129;27;45599;-70
2023/05/14 06:42:12;;;;;;;;;5.00;5.00;;;;;15.86;75.89;100704.59;5074828;28;45458;-72
2023/05/14 06:44:38;;;;;;;;;5.67;5.00;;;;;15.87;75.75;100694.03;5076113;28;45390;-69
2023/05/14 06:47:05;;;;;;;;;5.33;5.00;;;;;16.00;75.70;100704.72;5076471;27;45318;-70
2023/05/14 06:49:31;;;;;;;;;5.00;5.00;;;;;15.94;75.75;100689.75;5075141;28;45731;-69
2023/05/14 06:51:56;;;;;;;;;8.00;7.00;;;;;16.08;75.58;100717.09;5074424;28;45254;-70
2023/05/14 06:54:22;;;;;;;;;6.33;5.00;;;;;16.03;75.70;100703.00;5075024;28;45388;-71
2023/05/14 06:56:47;;;;;;;;;6.00;6.00;;;;;16.20;75.76;100713.72;5076279;28;45347;-70
2023/05/14 06:59:13;;;;;;;;;6.67;5.67;;;;;16.30;75.05;100694.47;5075118;27;46124;-70
2023/05/14 07:01:39;;;;;;;;;8.33;7.00;;;;;16.53;74.44;100699.03;5075955;28;45471;-69
2023/05/14 07:04:05;;;;;;;;;6.00;5.67;;;;;16.83;74.16;100697.53;5075612;27;45559;-70
2023/05/14 07:06:31;;;;;;;;;7.00;7.00;;;;;17.06;73.43;100702.97;5075057;28;45534;-70
2023/05/14 07:08:58;;;;;;;;;9.00;8.00;;;;;17.25;72.84;100704.84;5086698;27;46815;-70
2023/05/14 07:11:24;;;;;;;;;7.33;6.00;;;;;17.30;72.19;100696.94;5079546;27;45586;-71
2023/05/14 07:13:49;;;;;;;;;6.00;6.00;;;;;17.38;71.57;100694.34;5079035;27;45276;-70
2023/05/14 07:16:15;;;;;;;;;6.00;5.00;;;;;17.89;70.27;100704.25;5078072;28;45474;-71
2023/05/14 07:18:40;;;;;;;;;7.33;6.00;;;;;17.90;69.34;100697.19;5078879;28;46376;-71
2023/05/14 07:21:06;;;;;;;;;7.00;6.33;;;;;18.15;68.72;100707.81;5079070;28;45426;-70
2023/05/14 07:23:34;;;;;;;;;8.00;6.00;;;;;18.14;67.66;100709.56;5079786;28;45442;-70
2023/05/14 07:26:00;;;;;;;;;4.67;4.00;;;;;18.06;68.12;100691.06;5079976;27;45580;-70
2023/05/14 07:28:26;;;;;;;;;5.67;5.00;;;;;18.45;67.00;100707.84;5078106;27;45650;-70
2023/05/14 07:30:51;;;;;;;;;5.00;5.00;;;;;19.38;64.98;100700.66;5077533;28;45598;-70
2023/05/14 07:33:16;;;;;;;;;7.67;6.00;;;;;19.47;62.62;100705.03;5078808;27;45466;-69
2023/05/14 07:35:42;;;;;;;;;7.00;7.00;;;;;19.75;62.60;100712.88;5079458;28;45505;-70
2023/05/14 07:38:08;;;;;;;;;6.00;6.00;;;;;20.57;60.56;100694.63;5077283;28;46926;-69
2023/05/14 07:40:33;;;;;;;;;6.00;5.00;;;;;22.25;57.64;100693.56;5077384;28;46362;-70
2023/05/14 07:42:59;;;;;;;;;7.00;5.67;;;;;21.80;55.92;100686.19;5078984;27;45516;-70
2023/05/14 07:45:24;;;;;;;;;6.00;5.33;;;;;20.78;58.19;100686.50;5079158;27;45502;-70
2023/05/14 07:47:50;;;;;;;;;6.33;5.67;;;;;19.99;60.09;100678.25;5079033;28;46585;-70
2023/05/14 07:50:19;;;;;;;;;6.67;6.67;;;;;19.68;62.61;100701.41;5077311;28;45393;-70
2023/05/14 07:52:45;;;;;;;;;4.33;4.00;;;;;19.33;63.18;100709.50;5079392;27;45452;-70
2023/05/14 07:55:12;;;;;;;;;7.33;6.67;;;;;18.88;64.11;100706.97;5079526;27;45572;-71
2023/05/14 07:57:37;;;;;;;;;6.33;6.00;;;;;18.71;64.84;100698.13;5078696;27;46125;-70
2023/05/14 08:00:08;;;;;;;;;18.00;15.33;;;;;18.70;66.38;100694.59;5078778;28;45577;-70
2023/05/14 08:02:33;;;;;;;;;8.00;8.00;;;;;18.71;66.01;100695.50;5079207;28;45503;-71
2023/05/14 08:04:59;;;;;;;;;14.67;12.00;;;;;18.69;66.57;100716.66;5078125;28;45497;-70
2023/05/14 08:07:26;;;;;;;;;9.33;9.33;;;;;19.10;66.33;100707.81;5077999;27;45639;-71
2023/05/14 08:09:52;;;;;;;;;7.00;7.00;;;;;20.02;62.92;100704.78;5076083;28;45392;-70
2023/05/14 08:12:18;;;;;;;;;7.67;7.00;;;;;19.50;62.92;100702.38;5078398;27;45364;-70
2023/05/14 08:14:43;;;;;;;;;6.00;6.00;;;;;19.39;63.14;100712.13;5078112;27;45535;-70
2023/05/14 08:17:09;;;;;;;;;7.33;6.33;;;;;19.50;64.50;100707.69;5077709;27;45410;-70
2023/05/14 08:19:34;;;;;;;;;8.33;7.00;;;;;19.40;65.38;100727.16;5078444;28;45468;-70
2023/05/14 08:22:00;;;;;;;;;7.67;7.00;;;;;20.34;61.56;100724.03;5078236;27;45476;-69
2023/05/14 08:24:25;;;;;;;;;7.67;6.00;;;;;21.58;58.95;100730.81;5078203;27;45406;-70
2023/05/14 08:26:51;;;;;;;;;7.33;7.00;;;;;22.13;57.39;100715.00;5077828;27;46596;-70
2023/05/14 08:29:17;;;;;;;;;6.00;5.67;;;;;21.58;57.02;100713.97;5078193;27;45528;-69
2023/05/14 08:31:43;;;;;;;;;7.33;6.67;;;;;21.25;57.28;100716.13;5076732;28;46107;-70
2023/05/14 08:34:08;;;;;;;;;7.67;7.67;;;;;21.37;58.01;100723.09;5071508;27;45466;-70
2023/05/14 08:36:34;;;;;;;;;10.67;10.67;;;;;21.93;57.63;100707.31;5056268;28;45475;-69
2023/05/14 08:38:59;;;;;;;;;9.33;8.67;;;;;22.98;54.81;100718.03;5039610;28;45562;-69
2023/05/14 08:41:25;;;;;;;;;8.00;8.00;;;;;22.80;52.92;100732.56;5039707;28;45480;-70
2023/05/14 08:44:13;;;;;;;;;7.00;6.67;;;;;22.48;52.71;100732.22;5058388;28;45646;-70
2023/05/14 08:46:40;;;;;;;;;6.67;6.67;;;;;22.81;52.12;100723.66;5057319;28;46529;-69
2023/05/14 08:49:32;;;;;;;;;8.00;7.33;;;;;23.97;51.68;100738.31;5058188;28;45442;-69
2023/05/14 08:51:59;;;;;;;;;6.00;6.00;;;;;25.23;48.11;100737.03;5057842;28;45691;-70
2023/05/14 08:54:25;;;;;;;;;6.00;6.00;;;;;25.23;47.37;100744.16;5058312;28;45332;-69
2023/05/14 08:56:52;;;;;;;;;6.67;6.67;;;;;24.62;49.77;100726.13;5057719;28;45399;-69
2023/05/14 08:59:18;;;;;;;;;11.00;10.33;;;;;24.20;50.30;100723.56;5039782;28;45260;-70
2023/05/14 09:01:46;;;;;;;;;9.33;9.00;;;;;23.55;50.56;100740.94;5057586;28;45243;-70
2023/05/14 09:04:19;;;;;;;;;7.00;7.00;;;;;22.92;51.14;100747.47;5039339;28;45486;-70
2023/05/14 09:06:48;;;;;;;;;9.33;8.00;;;;;22.04;51.94;100723.97;5057350;28;45839;-70
2023/05/14 09:09:13;;;;;;;;;8.67;8.00;;;;;21.63;53.48;100736.94;5057129;28;45422;-70
2023/05/14 09:11:45;;;;;;;;;9.00;9.00;;;;;21.35;54.19;100740.81;5058152;28;45348;-70
2023/05/14 09:14:10;;;;;;;;;10.67;10.00;;;;;21.12;56.05;100755.22;5057399;28;45572;-70
2023/05/14 09:16:38;;;;;;;;;7.67;7.00;;;;;20.89;54.94;100752.78;5039551;28;46967;-69
2023/05/14 09:19:05;;;;;;;;;9.67;9.00;;;;;20.71;56.55;100759.16;5057578;28;45531;-69
2023/05/14 09:21:31;;;;;;;;;9.33;8.33;;;;;20.36;56.18;100733.72;5039128;28;45328;-70
2023/05/14 09:24:00;;;;;;;;;11.67;11.67;;;;;20.29;56.36;100765.59;5057256;28;45280;-69
2023/05/14 09:26:26;;;;;;;;;9.67;8.00;;;;;20.19;57.72;100754.16;5038189;28;47650;-72
2023/05/14 09:28:54;;;;;;;;;12.00;12.00;;;;;20.08;58.21;100734.81;5056748;28;45471;-69
2023/05/14 09:31:20;;;;;;;;;12.00;11.67;;;;;20.03;58.95;100735.72;5056481;28;45300;-69
2023/05/14 09:33:52;;;;;;;;;9.67;9.00;;;;;19.92;59.36;100747.28;5062418;28;45457;-69
2023/05/14 09:36:18;;;;;;;;;14.00;11.33;;;;;19.37;59.03;100685.63;5073359;28;47634;-69
2023/05/14 09:38:44;;;;;;;;;9.00;8.67;;;;;19.30;59.52;100738.63;5076847;27;45332;-70
2023/05/14 09:41:10;;;;;;;;;12.00;10.67;;;;;19.11;60.27;100759.00;5077288;27;45318;-72
2023/05/14 09:43:35;;;;;;;;;14.67;13.00;;;;;19.18;60.85;100764.28;5076873;27;45445;-70
2023/05/14 09:46:01;;;;;;;;;12.33;11.67;;;;;20.28;59.54;100740.84;5076249;27;45435;-69
2023/05/14 09:48:32;;;;;;;;;10.00;9.00;;;;;21.15;57.50;100725.97;5076502;28;45531;-71
2023/05/14 09:50:57;;;;;;;;;11.67;11.67;;;;;21.58;55.98;100733.47;5083556;27;45655;-70
2023/05/14 09:53:23;;;;;;;;;12.33;12.00;;;;;21.67;55.69;100724.50;5057003;28;45454;-70
2023/05/14 09:55:52;;;;;;;;;14.33;12.33;;;;;21.45;56.09;100718.59;5056281;28;45644;-73
2023/05/14 09:58:17;;;;;;;;;14.67;14.67;;;;;21.80;56.20;100751.81;5057020;28;45376;-70
2023/05/14 10:00:44;;;;;;;;;14.00;13.67;;;;;22.04;55.50;100740.84;5057251;28;45264;-72
2023/05/14 10:03:13;;;;;;;;;16.00;16.00;;;;;22.05;54.67;100737.28;5057476;28;45436;-71
2023/05/14 10:05:42;;;;;;;;;22.00;18.67;;;;;21.92;56.39;100733.00;5055562;28;46733;-71
2023/05/14 10:08:18;;;;;;;;;28.50;25.25;;;;;21.79;57.08;100756.25;5056279;28;45340;-72
2023/05/14 10:10:44;;;;;;;;;26.75;24.25;;;;;21.40;56.93;100760.22;5056281;28;45502;-71
2023/05/14 10:13:14;;;;;;;;;26.50;24.00;;;;;21.11;57.52;100768.50;5063858;28;45338;-71
2023/05/14 10:15:46;;;;;;;;;30.00;27.25;;;;;20.69;58.77;100760.94;5076825;28;45781;-71
2023/05/14 10:18:17;;;;;;;;;27.25;23.50;;;;;20.45;59.35;100761.94;5076711;27;45401;-71
2023/05/14 10:21:06;;;;;;;;;30.25;26.50;;;;;20.35;60.88;100777.06;5077332;28;45341;-72
2023/05/14 10:23:36;;;;;;;;;25.25;23.25;;;;;20.11;61.53;100790.47;5075290;27;45640;-70
2023/05/14 10:26:05;;;;;;;;;28.00;27.25;;;;;19.79;62.27;100775.59;5076373;28;45520;-72
2023/05/14 10:28:31;;;;;;;;;32.50;28.00;;;;;19.41;62.88;100763.34;5076970;28;45488;-72
2023/05/14 10:30:59;;;;;;;;;28.50;26.50;;;;;19.54;63.95;100809.25;5077123;28;45456;-71
2023/05/14 10:33:26;;;;;;;;;33.00;28.50;;;;;19.35;64.02;100801.31;5077050;28;45409;-72
2023/05/14 10:36:03;;;;;;;;;26.75;25.50;;;;;19.15;64.88;100811.94;5076574;28;46114;-72
2023/05/14 10:38:36;;;;;;;;;30.25;28.75;;;;;18.86;65.19;100801.34;5075370;28;45305;-71
2023/05/14 10:41:11;;;;;;;;;17.00;15.50;;;;;18.95;62.36;100780.19;5075528;28;45472;-72
2023/05/14 10:43:38;;;;;;;;;20.33;19.33;;;;;19.61;61.97;100788.00;5078137;28;45582;-72
2023/05/14 10:46:05;;;;;;;;;18.25;17.75;;;;;20.57;60.68;100803.44;5076843;28;45615;-71
2023/05/14 10:48:32;;;;;;;;;18.33;17.00;;;;;21.39;58.90;100804.53;5078296;28;45437;-72
2023/05/14 10:51:01;;;;;;;;;25.75;23.75;;;;;22.14;56.73;100808.09;5079674;28;45546;-72
2023/05/14 10:53:35;;;;;;;;;30.75;25.75;;;;;22.41;57.36;100804.19;5078631;27;45394;-71
2023/05/14 10:56:12;;;;;;;;;26.75;26.25;;;;;22.07;56.95;100773.63;5079724;27;46308;-70
2023/05/14 10:58:41;;;;;;;;;28.00;25.25;;;;;21.85;57.98;100803.16;5079546;27;45460;-70
2023/05/14 11:01:11;;;;;;;;;29.25;26.75;;;;;21.48;58.21;100824.84;5079435;27;45642;-71
2023/05/14 11:03:42;;;;;;;;;28.00;26.50;;;;;21.09;59.31;100807.47;5079789;28;45507;-71
2023/05/14 11:06:09;;;;;;;;;26.00;25.00;;;;;20.91;59.33;100806.78;5078009;28;47013;-70
2023/05/14 11:08:36;;;;;;;;;34.00;30.75;;;;;20.96;60.56;100801.41;5076876;28;45453;-69
2023/05/14 11:11:01;;;;;;;;;35.25;31.75;;;;;21.22;61.00;100817.97;5079726;28;45860;-70
2023/05/14 11:13:27;;;;;;;;;31.25;28.75;;;;;21.23;60.27;100819.75;5078922;27;45485;-70
2023/05/14 11:15:54;;;;;;;;;30.25;28.50;;;;;21.08;59.57;100817.22;5079249;28;45564;-70
2023/05/14 11:18:30;;;;;;;;;31.50;29.25;;;;;20.29;61.26;100813.34;5079049;27;46015;-70
2023/05/14 11:21:00;;;;;;;;;33.75;30.50;;;;;20.17;61.15;100803.69;5078071;28;45484;-70